sensor_id;sensor_type;location;lat;lon;timestamp;P1;durP1;ratioP1;P2;durP2;ratioP2
20411;SDS011;10365;52.578;8.138;2023-10-13T00:01:18;95.47;;;42.83;;
20411;SDS011;10365;52.578;8.138;2023-10-13T00:03:43;100.43;;;43.45;;
20411;SDS011;10365;52.578;8.138;2023-10-13T00:06:09;96.32;;;43.05;;
20411;SDS011;10365;52.578;8.138;2023-10-13T00:08:36;98.20;;;42.78;;
20411;SDS011;10365;52.578;8.138;2023-10-13T00:11:05;103.75;;;42.42;;
20411;SDS011;10365;52.578;8.138;2023-10-13T00:13:30;95.13;;;43.65;;
20411;SDS011;10365;52.578;8.138;2023-10-13T00:16:08;98.95;;;41.67;;
20411;SDS011;10365;52.578;8.138;2023-10-13T00:18:35;104.63;;;43.03;;
20411;SDS011;10365;52.578;8.138;2023-10-13T00:21:06;97.07;;;42.47;;
20411;SDS011;10365;52.578;8.138;2023-10-13T00:23:38;97.43;;;42.78;;
20411;SDS011;10365;52.578;8.138;2023-10-13T00:26:05;97.47;;;43.28;;
20411;SDS011;10365;52.578;8.138;2023-10-13T00:28:34;93.68;;;41.67;;
20411;SDS011;10365;52.578;8.138;2023-10-13T00:31:11;98.07;;;43.00;;
20411;SDS011;10365;52.578;8.138;2023-10-13T00:33:38;98.28;;;44.25;;
20411;SDS011;10365;52.578;8.138;2023-10-13T00:36:03;101.05;;;42.35;;
20411;SDS011;10365;52.578;8.138;2023-10-13T00:38:30;101.60;;;43.25;;
20411;SDS011;10365;52.578;8.138;2023-10-13T00:40:55;106.03;;;43.85;;
20411;SDS011;10365;52.578;8.138;2023-10-13T00:43:22;103.22;;;44.53;;
20411;SDS011;10365;52.578;8.138;2023-10-13T00:50:56;102.10;;;42.88;;
20411;SDS011;10365;52.578;8.138;2023-10-13T00:53:22;100.30;;;43.22;;
20411;SDS011;10365;52.578;8.138;2023-10-13T00:55:48;99.97;;;43.40;;
20411;SDS011;10365;52.578;8.138;2023-10-13T00:58:14;115.93;;;45.42;;
20411;SDS011;10365;52.578;8.138;2023-10-13T01:00:41;109.13;;;44.67;;
20411;SDS011;10365;52.578;8.138;2023-10-13T01:03:13;96.60;;;42.58;;
20411;SDS011;10365;52.578;8.138;2023-10-13T01:05:39;99.43;;;43.85;;
20411;SDS011;10365;52.578;8.138;2023-10-13T01:08:04;102.25;;;43.53;;
20411;SDS011;10365;52.578;8.138;2023-10-13T01:10:30;95.47;;;42.20;;
20411;SDS011;10365;52.578;8.138;2023-10-13T01:12:57;107.22;;;44.72;;
20411;SDS011;10365;52.578;8.138;2023-10-13T01:15:24;93.03;;;42.30;;
20411;SDS011;10365;52.578;8.138;2023-10-13T01:17:56;98.50;;;43.10;;
20411;SDS011;10365;52.578;8.138;2023-10-13T01:20:31;95.18;;;40.55;;
20411;SDS011;10365;52.578;8.138;2023-10-13T01:22:58;93.70;;;40.35;;
20411;SDS011;10365;52.578;8.138;2023-10-13T01:25:24;97.88;;;41.22;;
20411;SDS011;10365;52.578;8.138;2023-10-13T01:27:52;91.18;;;40.75;;
20411;SDS011;10365;52.578;8.138;2023-10-13T01:30:18;99.75;;;42.60;;
20411;SDS011;10365;52.578;8.138;2023-10-13T01:32:51;92.32;;;41.35;;
20411;SDS011;10365;52.578;8.138;2023-10-13T01:35:19;90.25;;;38.47;;
20411;SDS011;10365;52.578;8.138;2023-10-13T01:37:44;90.45;;;38.38;;
20411;SDS011;10365;52.578;8.138;2023-10-13T01:40:10;87.07;;;38.53;;
20411;SDS011;10365;52.578;8.138;2023-10-13T01:42:39;94.65;;;38.28;;
20411;SDS011;10365;52.578;8.138;2023-10-13T01:45:04;88.07;;;40.22;;
20411;SDS011;10365;52.578;8.138;2023-10-13T01:47:33;89.63;;;38.83;;
20411;SDS011;10365;52.578;8.138;2023-10-13T01:49:58;89.88;;;37.78;;
20411;SDS011;10365;52.578;8.138;2023-10-13T01:52:32;86.93;;;38.40;;
20411;SDS011;10365;52.578;8.138;2023-10-13T01:54:58;88.03;;;39.13;;
20411;SDS011;10365;52.578;8.138;2023-10-13T01:57:26;75.20;;;37.25;;
20411;SDS011;10365;52.578;8.138;2023-10-13T01:59:53;82.85;;;36.33;;
20411;SDS011;10365;52.578;8.138;2023-10-13T02:02:20;80.78;;;35.80;;
20411;SDS011;10365;52.578;8.138;2023-10-13T02:04:55;80.90;;;36.95;;
20411;SDS011;10365;52.578;8.138;2023-10-13T02:07:40;76.78;;;35.75;;
20411;SDS011;10365;52.578;8.138;2023-10-13T02:10:10;73.38;;;34.78;;
20411;SDS011;10365;52.578;8.138;2023-10-13T02:12:37;78.63;;;35.72;;
20411;SDS011;10365;52.578;8.138;2023-10-13T02:15:13;74.85;;;36.45;;
20411;SDS011;10365;52.578;8.138;2023-10-13T02:17:48;77.68;;;36.35;;
20411;SDS011;10365;52.578;8.138;2023-10-13T02:20:17;80.93;;;36.85;;
20411;SDS011;10365;52.578;8.138;2023-10-13T02:22:43;86.00;;;37.33;;
20411;SDS011;10365;52.578;8.138;2023-10-13T02:25:15;77.60;;;38.17;;
20411;SDS011;10365;52.578;8.138;2023-10-13T02:27:58;86.63;;;38.90;;
20411;SDS011;10365;52.578;8.138;2023-10-13T02:30:23;83.15;;;37.88;;
20411;SDS011;10365;52.578;8.138;2023-10-13T02:32:49;84.00;;;37.83;;
20411;SDS011;10365;52.578;8.138;2023-10-13T02:35:15;87.78;;;37.92;;
20411;SDS011;10365;52.578;8.138;2023-10-13T02:37:42;86.82;;;38.00;;
20411;SDS011;10365;52.578;8.138;2023-10-13T02:40:19;79.38;;;38.17;;
20411;SDS011;10365;52.578;8.138;2023-10-13T02:42:48;82.85;;;37.67;;
20411;SDS011;10365;52.578;8.138;2023-10-13T02:45:13;91.97;;;41.40;;
20411;SDS011;10365;52.578;8.138;2023-10-13T02:47:39;83.18;;;39.15;;
20411;SDS011;10365;52.578;8.138;2023-10-13T02:50:05;87.18;;;39.70;;
20411;SDS011;10365;52.578;8.138;2023-10-13T02:52:38;77.70;;;37.65;;
20411;SDS011;10365;52.578;8.138;2023-10-13T02:55:07;85.88;;;37.80;;
20411;SDS011;10365;52.578;8.138;2023-10-13T02:57:35;88.25;;;38.85;;
20411;SDS011;10365;52.578;8.138;2023-10-13T03:00:01;92.75;;;39.75;;
20411;SDS011;10365;52.578;8.138;2023-10-13T03:02:37;74.95;;;35.65;;
20411;SDS011;10365;52.578;8.138;2023-10-13T03:05:09;74.15;;;36.85;;
20411;SDS011;10365;52.578;8.138;2023-10-13T03:07:34;71.03;;;34.90;;
20411;SDS011;10365;52.578;8.138;2023-10-13T03:10:03;75.57;;;36.65;;
20411;SDS011;10365;52.578;8.138;2023-10-13T03:12:41;72.82;;;35.60;;
20411;SDS011;10365;52.578;8.138;2023-10-13T03:15:07;71.53;;;34.17;;
20411;SDS011;10365;52.578;8.138;2023-10-13T03:17:40;76.00;;;33.78;;
20411;SDS011;10365;52.578;8.138;2023-10-13T03:20:15;70.20;;;34.38;;
20411;SDS011;10365;52.578;8.138;2023-10-13T03:22:42;69.93;;;32.50;;
20411;SDS011;10365;52.578;8.138;2023-10-13T03:25:10;60.42;;;31.02;;
20411;SDS011;10365;52.578;8.138;2023-10-13T03:27:43;64.63;;;30.15;;
20411;SDS011;10365;52.578;8.138;2023-10-13T03:30:17;62.28;;;30.83;;
20411;SDS011;10365;52.578;8.138;2023-10-13T03:32:43;66.88;;;31.38;;
20411;SDS011;10365;52.578;8.138;2023-10-13T03:35:11;60.92;;;30.65;;
20411;SDS011;10365;52.578;8.138;2023-10-13T03:37:38;62.85;;;31.73;;
20411;SDS011;10365;52.578;8.138;2023-10-13T03:40:11;64.18;;;31.00;;
20411;SDS011;10365;52.578;8.138;2023-10-13T03:45:35;61.90;;;31.27;;
20411;SDS011;10365;52.578;8.138;2023-10-13T03:48:16;62.42;;;31.17;;
20411;SDS011;10365;52.578;8.138;2023-10-13T03:50:51;63.85;;;32.03;;
20411;SDS011;10365;52.578;8.138;2023-10-13T03:53:27;65.65;;;33.13;;
20411;SDS011;10365;52.578;8.138;2023-10-13T03:55:58;62.15;;;32.88;;
20411;SDS011;10365;52.578;8.138;2023-10-13T03:58:33;61.90;;;32.10;;
20411;SDS011;10365;52.578;8.138;2023-10-13T04:00:59;65.00;;;33.20;;
20411;SDS011;10365;52.578;8.138;2023-10-13T04:03:25;60.63;;;33.05;;
20411;SDS011;10365;52.578;8.138;2023-10-13T04:05:58;63.55;;;31.95;;
20411;SDS011;10365;52.578;8.138;2023-10-13T04:08:31;75.30;;;32.40;;
20411;SDS011;10365;52.578;8.138;2023-10-13T04:11:08;60.88;;;32.05;;
20411;SDS011;10365;52.578;8.138;2023-10-13T04:13:54;63.83;;;33.03;;
20411;SDS011;10365;52.578;8.138;2023-10-13T04:16:48;57.10;;;32.15;;
20411;SDS011;10365;52.578;8.138;2023-10-13T04:19:19;61.60;;;31.27;;
20411;SDS011;10365;52.578;8.138;2023-10-13T04:21:48;53.92;;;31.45;;
20411;SDS011;10365;52.578;8.138;2023-10-13T04:24:23;59.05;;;30.95;;
20411;SDS011;10365;52.578;8.138;2023-10-13T04:27:24;54.85;;;30.10;;
20411;SDS011;10365;52.578;8.138;2023-10-13T04:30:04;56.00;;;29.98;;
20411;SDS011;10365;52.578;8.138;2023-10-13T04:32:32;51.25;;;29.25;;
20411;SDS011;10365;52.578;8.138;2023-10-13T04:35:00;64.07;;;29.85;;
20411;SDS011;10365;52.578;8.138;2023-10-13T04:37:55;56.30;;;30.55;;
20411;SDS011;10365;52.578;8.138;2023-10-13T04:40:26;52.53;;;30.48;;
20411;SDS011;10365;52.578;8.138;2023-10-13T04:42:53;53.22;;;31.08;;
20411;SDS011;10365;52.578;8.138;2023-10-13T04:45:20;53.75;;;28.45;;
20411;SDS011;10365;52.578;8.138;2023-10-13T04:47:58;51.40;;;29.67;;
20411;SDS011;10365;52.578;8.138;2023-10-13T04:50:46;52.05;;;29.17;;
20411;SDS011;10365;52.578;8.138;2023-10-13T04:53:15;54.00;;;28.95;;
20411;SDS011;10365;52.578;8.138;2023-10-13T04:55:53;46.78;;;28.13;;
20411;SDS011;10365;52.578;8.138;2023-10-13T04:58:28;52.80;;;27.55;;
20411;SDS011;10365;52.578;8.138;2023-10-13T05:00:59;56.33;;;29.05;;
20411;SDS011;10365;52.578;8.138;2023-10-13T05:03:43;52.22;;;27.42;;
20411;SDS011;10365;52.578;8.138;2023-10-13T05:06:27;46.95;;;27.15;;
20411;SDS011;10365;52.578;8.138;2023-10-13T05:09:11;46.08;;;25.95;;
20411;SDS011;10365;52.578;8.138;2023-10-13T05:11:55;46.60;;;25.98;;
20411;SDS011;10365;52.578;8.138;2023-10-13T05:14:40;47.47;;;27.70;;
20411;SDS011;10365;52.578;8.138;2023-10-13T05:17:24;40.78;;;26.05;;
20411;SDS011;10365;52.578;8.138;2023-10-13T05:20:08;50.92;;;26.52;;
20411;SDS011;10365;52.578;8.138;2023-10-13T05:22:52;46.35;;;26.95;;
20411;SDS011;10365;52.578;8.138;2023-10-13T05:25:36;55.72;;;27.48;;
20411;SDS011;10365;52.578;8.138;2023-10-13T05:28:20;49.17;;;28.25;;
20411;SDS011;10365;52.578;8.138;2023-10-13T05:31:04;50.45;;;27.25;;
20411;SDS011;10365;52.578;8.138;2023-10-13T05:33:48;50.75;;;29.08;;
20411;SDS011;10365;52.578;8.138;2023-10-13T05:36:32;53.60;;;30.13;;
20411;SDS011;10365;52.578;8.138;2023-10-13T05:39:16;54.45;;;30.13;;
20411;SDS011;10365;52.578;8.138;2023-10-13T05:42:00;57.22;;;30.45;;
20411;SDS011;10365;52.578;8.138;2023-10-13T05:44:44;56.55;;;30.52;;
20411;SDS011;10365;52.578;8.138;2023-10-13T05:47:24;55.08;;;30.70;;
20411;SDS011;10365;52.578;8.138;2023-10-13T05:50:09;56.45;;;30.60;;
20411;SDS011;10365;52.578;8.138;2023-10-13T05:52:47;62.45;;;33.35;;
20411;SDS011;10365;52.578;8.138;2023-10-13T05:55:28;59.42;;;34.15;;
20411;SDS011;10365;52.578;8.138;2023-10-13T05:58:12;60.50;;;33.33;;
20411;SDS011;10365;52.578;8.138;2023-10-13T06:00:58;64.57;;;35.10;;
20411;SDS011;10365;52.578;8.138;2023-10-13T06:03:42;69.10;;;36.78;;
20411;SDS011;10365;52.578;8.138;2023-10-13T06:06:26;68.15;;;34.60;;
20411;SDS011;10365;52.578;8.138;2023-10-13T06:09:10;65.85;;;33.80;;
20411;SDS011;10365;52.578;8.138;2023-10-13T06:11:54;72.05;;;35.70;;
20411;SDS011;10365;52.578;8.138;2023-10-13T06:14:38;68.50;;;36.60;;
20411;SDS011;10365;52.578;8.138;2023-10-13T06:17:22;60.35;;;35.53;;
20411;SDS011;10365;52.578;8.138;2023-10-13T06:20:07;68.75;;;36.25;;
20411;SDS011;10365;52.578;8.138;2023-10-13T06:22:51;63.72;;;34.55;;
20411;SDS011;10365;52.578;8.138;2023-10-13T06:25:35;61.08;;;34.15;;
20411;SDS011;10365;52.578;8.138;2023-10-13T06:28:18;65.13;;;31.98;;
20411;SDS011;10365;52.578;8.138;2023-10-13T06:31:03;54.47;;;30.17;;
20411;SDS011;10365;52.578;8.138;2023-10-13T06:33:31;54.35;;;28.55;;
20411;SDS011;10365;52.578;8.138;2023-10-13T06:35:59;49.10;;;26.63;;
20411;SDS011;10365;52.578;8.138;2023-10-13T06:38:24;48.25;;;25.50;;
20411;SDS011;10365;52.578;8.138;2023-10-13T06:40:49;41.75;;;23.88;;
20411;SDS011;10365;52.578;8.138;2023-10-13T06:43:18;37.50;;;22.38;;
20411;SDS011;10365;52.578;8.138;2023-10-13T06:45:47;42.75;;;23.25;;
20411;SDS011;10365;52.578;8.138;2023-10-13T06:48:23;38.00;;;23.42;;
20411;SDS011;10365;52.578;8.138;2023-10-13T06:50:48;43.65;;;22.77;;
20411;SDS011;10365;52.578;8.138;2023-10-13T06:53:14;45.13;;;23.90;;
20411;SDS011;10365;52.578;8.138;2023-10-13T06:55:41;43.80;;;25.08;;
20411;SDS011;10365;52.578;8.138;2023-10-13T06:58:12;42.75;;;23.88;;
20411;SDS011;10365;52.578;8.138;2023-10-13T07:00:38;37.30;;;21.98;;
20411;SDS011;10365;52.578;8.138;2023-10-13T07:03:06;37.55;;;23.83;;
20411;SDS011;10365;52.578;8.138;2023-10-13T07:05:35;41.45;;;22.98;;
20411;SDS011;10365;52.578;8.138;2023-10-13T07:08:00;38.05;;;23.27;;
20411;SDS011;10365;52.578;8.138;2023-10-13T07:10:29;38.88;;;23.23;;
20411;SDS011;10365;52.578;8.138;2023-10-13T07:12:58;41.13;;;23.88;;
20411;SDS011;10365;52.578;8.138;2023-10-13T07:15:25;40.75;;;24.58;;
20411;SDS011;10365;52.578;8.138;2023-10-13T07:17:52;40.75;;;24.67;;
20411;SDS011;10365;52.578;8.138;2023-10-13T07:20:27;45.83;;;24.05;;
20411;SDS011;10365;52.578;8.138;2023-10-13T07:22:52;39.92;;;23.83;;
20411;SDS011;10365;52.578;8.138;2023-10-13T07:25:32;40.15;;;23.77;;
20411;SDS011;10365;52.578;8.138;2023-10-13T07:28:05;42.10;;;24.92;;
20411;SDS011;10365;52.578;8.138;2023-10-13T07:30:33;44.17;;;24.38;;
20411;SDS011;10365;52.578;8.138;2023-10-13T07:33:06;39.20;;;25.00;;
20411;SDS011;10365;52.578;8.138;2023-10-13T07:35:32;37.15;;;24.02;;
20411;SDS011;10365;52.578;8.138;2023-10-13T07:38:01;40.10;;;24.67;;
20411;SDS011;10365;52.578;8.138;2023-10-13T07:40:28;38.97;;;23.27;;
20411;SDS011;10365;52.578;8.138;2023-10-13T07:42:53;38.42;;;24.00;;
20411;SDS011;10365;52.578;8.138;2023-10-13T07:45:35;39.92;;;23.55;;
20411;SDS011;10365;52.578;8.138;2023-10-13T07:48:04;36.38;;;23.70;;
20411;SDS011;10365;52.578;8.138;2023-10-13T07:50:39;31.42;;;22.00;;
20411;SDS011;10365;52.578;8.138;2023-10-13T07:53:04;31.17;;;22.25;;
20411;SDS011;10365;52.578;8.138;2023-10-13T07:55:47;34.83;;;22.67;;
20411;SDS011;10365;52.578;8.138;2023-10-13T07:58:13;35.60;;;23.17;;
20411;SDS011;10365;52.578;8.138;2023-10-13T08:00:40;34.50;;;21.92;;
20411;SDS011;10365;52.578;8.138;2023-10-13T08:03:08;32.78;;;20.98;;
20411;SDS011;10365;52.578;8.138;2023-10-13T08:05:39;33.28;;;19.27;;
20411;SDS011;10365;52.578;8.138;2023-10-13T08:08:21;27.95;;;18.40;;
20411;SDS011;10365;52.578;8.138;2023-10-13T08:10:47;27.25;;;17.33;;
20411;SDS011;10365;52.578;8.138;2023-10-13T08:13:12;24.17;;;17.77;;
20411;SDS011;10365;52.578;8.138;2023-10-13T08:15:44;27.20;;;17.00;;
20411;SDS011;10365;52.578;8.138;2023-10-13T08:18:15;24.80;;;16.02;;
20411;SDS011;10365;52.578;8.138;2023-10-13T08:20:58;23.92;;;15.02;;
20411;SDS011;10365;52.578;8.138;2023-10-13T08:23:41;20.13;;;14.45;;
20411;SDS011;10365;52.578;8.138;2023-10-13T08:26:18;28.30;;;14.05;;
20411;SDS011;10365;52.578;8.138;2023-10-13T08:29:05;21.38;;;12.55;;
20411;SDS011;10365;52.578;8.138;2023-10-13T08:31:49;20.55;;;12.23;;
20411;SDS011;10365;52.578;8.138;2023-10-13T08:34:37;17.98;;;12.27;;
20411;SDS011;10365;52.578;8.138;2023-10-13T08:37:09;17.90;;;12.15;;
20411;SDS011;10365;52.578;8.138;2023-10-13T08:39:47;17.90;;;13.40;;
20411;SDS011;10365;52.578;8.138;2023-10-13T08:42:29;18.73;;;13.65;;
20411;SDS011;10365;52.578;8.138;2023-10-13T08:45:10;19.92;;;12.80;;
20411;SDS011;10365;52.578;8.138;2023-10-13T08:47:51;17.83;;;12.05;;
20411;SDS011;10365;52.578;8.138;2023-10-13T08:58:42;17.75;;;11.73;;
20411;SDS011;10365;52.578;8.138;2023-10-13T09:04:01;14.32;;;11.60;;
20411;SDS011;10365;52.578;8.138;2023-10-13T09:06:56;17.60;;;12.23;;
20411;SDS011;10365;52.578;8.138;2023-10-13T09:09:28;16.33;;;11.30;;
20411;SDS011;10365;52.578;8.138;2023-10-13T09:12:00;22.85;;;12.88;;
20411;SDS011;10365;52.578;8.138;2023-10-13T09:14:38;20.30;;;11.90;;
20411;SDS011;10365;52.578;8.138;2023-10-13T09:17:08;18.35;;;12.98;;
20411;SDS011;10365;52.578;8.138;2023-10-13T09:19:56;19.92;;;12.18;;
20411;SDS011;10365;52.578;8.138;2023-10-13T09:22:26;15.93;;;12.10;;
20411;SDS011;10365;52.578;8.138;2023-10-13T09:25:02;18.73;;;12.32;;
20411;SDS011;10365;52.578;8.138;2023-10-13T09:27:31;18.88;;;12.18;;
20411;SDS011;10365;52.578;8.138;2023-10-13T09:29:58;17.10;;;12.50;;
20411;SDS011;10365;52.578;8.138;2023-10-13T09:32:42;21.48;;;12.10;;
20411;SDS011;10365;52.578;8.138;2023-10-13T09:35:16;17.15;;;12.00;;
20411;SDS011;10365;52.578;8.138;2023-10-13T09:37:41;18.40;;;10.93;;
20411;SDS011;10365;52.578;8.138;2023-10-13T09:40:07;21.50;;;11.25;;
20411;SDS011;10365;52.578;8.138;2023-10-13T09:42:52;13.38;;;9.32;;
20411;SDS011;10365;52.578;8.138;2023-10-13T09:45:23;16.70;;;9.25;;
20411;SDS011;10365;52.578;8.138;2023-10-13T09:47:54;16.63;;;8.45;;
20411;SDS011;10365;52.578;8.138;2023-10-13T09:50:22;17.30;;;8.55;;
20411;SDS011;10365;52.578;8.138;2023-10-13T09:52:49;15.93;;;8.02;;
20411;SDS011;10365;52.578;8.138;2023-10-13T09:57:43;18.73;;;6.32;;
20411;SDS011;10365;52.578;8.138;2023-10-13T10:00:15;14.93;;;6.75;;
20411;SDS011;10365;52.578;8.138;2023-10-13T10:03:00;14.68;;;6.05;;
20411;SDS011;10365;52.578;8.138;2023-10-13T10:05:42;15.55;;;5.95;;
20411;SDS011;10365;52.578;8.138;2023-10-13T10:08:23;19.30;;;5.45;;
20411;SDS011;10365;52.578;8.138;2023-10-13T10:10:56;13.75;;;5.03;;
20411;SDS011;10365;52.578;8.138;2023-10-13T10:13:35;12.05;;;5.40;;
20411;SDS011;10365;52.578;8.138;2023-10-13T10:16:08;18.00;;;5.50;;
20411;SDS011;10365;52.578;8.138;2023-10-13T10:18:41;17.98;;;5.43;;
20411;SDS011;10365;52.578;8.138;2023-10-13T10:21:06;15.10;;;5.15;;
20411;SDS011;10365;52.578;8.138;2023-10-13T10:23:36;11.85;;;4.82;;
20411;SDS011;10365;52.578;8.138;2023-10-13T10:26:13;12.85;;;4.70;;
20411;SDS011;10365;52.578;8.138;2023-10-13T10:28:45;11.88;;;4.68;;
20411;SDS011;10365;52.578;8.138;2023-10-13T10:31:11;12.68;;;4.78;;
20411;SDS011;10365;52.578;8.138;2023-10-13T10:33:41;12.73;;;5.70;;
20411;SDS011;10365;52.578;8.138;2023-10-13T10:36:08;20.20;;;4.80;;
20411;SDS011;10365;52.578;8.138;2023-10-13T10:38:55;18.00;;;5.05;;
20411;SDS011;10365;52.578;8.138;2023-10-13T10:41:32;12.88;;;4.80;;
20411;SDS011;10365;52.578;8.138;2023-10-13T10:44:17;13.75;;;4.78;;
20411;SDS011;10365;52.578;8.138;2023-10-13T10:47:11;11.23;;;5.18;;
20411;SDS011;10365;52.578;8.138;2023-10-13T10:52:09;16.55;;;5.30;;
20411;SDS011;10365;52.578;8.138;2023-10-13T10:54:39;17.23;;;6.40;;
20411;SDS011;10365;52.578;8.138;2023-10-13T10:57:09;17.60;;;5.35;;
20411;SDS011;10365;52.578;8.138;2023-10-13T10:59:38;10.45;;;5.07;;
20411;SDS011;10365;52.578;8.138;2023-10-13T11:02:03;15.52;;;5.32;;
20411;SDS011;10365;52.578;8.138;2023-10-13T11:04:29;19.45;;;6.18;;
20411;SDS011;10365;52.578;8.138;2023-10-13T11:07:05;22.52;;;5.85;;
20411;SDS011;10365;52.578;8.138;2023-10-13T11:09:33;15.73;;;6.03;;
20411;SDS011;10365;52.578;8.138;2023-10-13T11:14:48;15.35;;;4.57;;
20411;SDS011;10365;52.578;8.138;2023-10-13T11:17:19;19.10;;;5.90;;
20411;SDS011;10365;52.578;8.138;2023-10-13T11:19:51;17.20;;;5.18;;
20411;SDS011;10365;52.578;8.138;2023-10-13T11:22:20;18.73;;;5.72;;
20411;SDS011;10365;52.578;8.138;2023-10-13T11:25:01;12.10;;;5.65;;
20411;SDS011;10365;52.578;8.138;2023-10-13T11:27:34;19.85;;;4.97;;
20411;SDS011;10365;52.578;8.138;2023-10-13T11:30:09;21.30;;;5.55;;
20411;SDS011;10365;52.578;8.138;2023-10-13T11:32:38;12.43;;;5.60;;
20411;SDS011;10365;52.578;8.138;2023-10-13T11:35:07;20.88;;;5.70;;
20411;SDS011;10365;52.578;8.138;2023-10-13T11:37:36;13.20;;;5.25;;
20411;SDS011;10365;52.578;8.138;2023-10-13T11:40:08;11.23;;;5.55;;
20411;SDS011;10365;52.578;8.138;2023-10-13T11:42:37;18.58;;;4.70;;
20411;SDS011;10365;52.578;8.138;2023-10-13T11:45:02;16.42;;;5.90;;
20411;SDS011;10365;52.578;8.138;2023-10-13T11:47:46;12.48;;;5.30;;
20411;SDS011;10365;52.578;8.138;2023-10-13T11:50:25;21.80;;;5.13;;
20411;SDS011;10365;52.578;8.138;2023-10-13T11:53:00;20.88;;;5.78;;
20411;SDS011;10365;52.578;8.138;2023-10-13T11:55:26;15.65;;;4.82;;
20411;SDS011;10365;52.578;8.138;2023-10-13T11:57:51;14.73;;;6.00;;
20411;SDS011;10365;52.578;8.138;2023-10-13T12:00:17;16.45;;;5.57;;
20411;SDS011;10365;52.578;8.138;2023-10-13T12:03:02;15.52;;;5.13;;
20411;SDS011;10365;52.578;8.138;2023-10-13T12:05:46;14.40;;;5.63;;
20411;SDS011;10365;52.578;8.138;2023-10-13T12:08:24;17.52;;;5.70;;
20411;SDS011;10365;52.578;8.138;2023-10-13T12:10:58;14.88;;;5.60;;
20411;SDS011;10365;52.578;8.138;2023-10-13T12:13:46;22.50;;;6.28;;
20411;SDS011;10365;52.578;8.138;2023-10-13T12:16:11;13.45;;;5.18;;
20411;SDS011;10365;52.578;8.138;2023-10-13T12:18:38;16.90;;;5.22;;
20411;SDS011;10365;52.578;8.138;2023-10-13T12:21:09;17.58;;;4.90;;
20411;SDS011;10365;52.578;8.138;2023-10-13T12:23:36;15.93;;;4.97;;
20411;SDS011;10365;52.578;8.138;2023-10-13T12:26:02;11.80;;;4.65;;
20411;SDS011;10365;52.578;8.138;2023-10-13T12:28:31;14.07;;;4.28;;
20411;SDS011;10365;52.578;8.138;2023-10-13T12:31:03;16.50;;;5.65;;
20411;SDS011;10365;52.578;8.138;2023-10-13T12:33:30;15.93;;;6.25;;
20411;SDS011;10365;52.578;8.138;2023-10-13T12:36:02;17.52;;;5.50;;
20411;SDS011;10365;52.578;8.138;2023-10-13T12:38:40;15.85;;;5.00;;
20411;SDS011;10365;52.578;8.138;2023-10-13T12:41:11;13.85;;;4.95;;
20411;SDS011;10365;52.578;8.138;2023-10-13T12:43:55;14.60;;;4.75;;
20411;SDS011;10365;52.578;8.138;2023-10-13T12:46:39;14.85;;;4.75;;
20411;SDS011;10365;52.578;8.138;2023-10-13T12:49:23;18.65;;;5.60;;
20411;SDS011;10365;52.578;8.138;2023-10-13T12:52:07;10.65;;;4.30;;
20411;SDS011;10365;52.578;8.138;2023-10-13T12:54:41;25.98;;;5.10;;
20411;SDS011;10365;52.578;8.138;2023-10-13T12:57:11;16.38;;;5.13;;
20411;SDS011;10365;52.578;8.138;2023-10-13T12:59:37;14.57;;;4.97;;
20411;SDS011;10365;52.578;8.138;2023-10-13T13:02:04;18.20;;;4.60;;
20411;SDS011;10365;52.578;8.138;2023-10-13T13:04:32;19.45;;;5.63;;
20411;SDS011;10365;52.578;8.138;2023-10-13T13:07:02;19.77;;;6.30;;
20411;SDS011;10365;52.578;8.138;2023-10-13T13:09:28;16.40;;;5.10;;
20411;SDS011;10365;52.578;8.138;2023-10-13T13:11:53;15.77;;;5.63;;
20411;SDS011;10365;52.578;8.138;2023-10-13T13:14:25;15.63;;;5.85;;
20411;SDS011;10365;52.578;8.138;2023-10-13T13:16:58;20.67;;;6.65;;
20411;SDS011;10365;52.578;8.138;2023-10-13T13:19:30;15.38;;;6.15;;
20411;SDS011;10365;52.578;8.138;2023-10-13T13:21:55;17.15;;;6.15;;
20411;SDS011;10365;52.578;8.138;2023-10-13T13:24:20;20.65;;;5.50;;
20411;SDS011;10365;52.578;8.138;2023-10-13T13:26:49;20.10;;;6.13;;
20411;SDS011;10365;52.578;8.138;2023-10-13T13:29:19;16.92;;;5.78;;
20411;SDS011;10365;52.578;8.138;2023-10-13T13:31:45;19.17;;;5.88;;
20411;SDS011;10365;52.578;8.138;2023-10-13T13:34:11;19.77;;;6.15;;
20411;SDS011;10365;52.578;8.138;2023-10-13T13:36:40;30.17;;;6.93;;
20411;SDS011;10365;52.578;8.138;2023-10-13T13:39:10;19.35;;;6.07;;
20411;SDS011;10365;52.578;8.138;2023-10-13T13:41:36;15.63;;;6.70;;
20411;SDS011;10365;52.578;8.138;2023-10-13T13:44:01;18.67;;;6.25;;
20411;SDS011;10365;52.578;8.138;2023-10-13T13:46:38;18.65;;;5.97;;
20411;SDS011;10365;52.578;8.138;2023-10-13T13:49:06;15.68;;;6.13;;
20411;SDS011;10365;52.578;8.138;2023-10-13T13:51:33;17.00;;;6.07;;
20411;SDS011;10365;52.578;8.138;2023-10-13T13:54:00;19.27;;;6.40;;
20411;SDS011;10365;52.578;8.138;2023-10-13T13:56:25;22.15;;;6.53;;
20411;SDS011;10365;52.578;8.138;2023-10-13T13:58:52;20.35;;;5.72;;
20411;SDS011;10365;52.578;8.138;2023-10-13T14:01:21;18.08;;;6.10;;
20411;SDS011;10365;52.578;8.138;2023-10-13T14:03:49;21.83;;;6.25;;
20411;SDS011;10365;52.578;8.138;2023-10-13T14:06:22;20.00;;;6.28;;
20411;SDS011;10365;52.578;8.138;2023-10-13T14:08:49;25.92;;;6.38;;
20411;SDS011;10365;52.578;8.138;2023-10-13T14:11:16;22.88;;;6.85;;
20411;SDS011;10365;52.578;8.138;2023-10-13T14:16:54;19.30;;;5.82;;
20411;SDS011;10365;52.578;8.138;2023-10-13T14:19:27;24.60;;;5.93;;
20411;SDS011;10365;52.578;8.138;2023-10-13T14:21:53;21.60;;;5.97;;
20411;SDS011;10365;52.578;8.138;2023-10-13T14:24:19;16.77;;;6.07;;
20411;SDS011;10365;52.578;8.138;2023-10-13T14:26:53;24.52;;;6.85;;
20411;SDS011;10365;52.578;8.138;2023-10-13T14:29:18;13.05;;;6.25;;
20411;SDS011;10365;52.578;8.138;2023-10-13T14:31:43;18.55;;;7.13;;
20411;SDS011;10365;52.578;8.138;2023-10-13T14:34:09;18.50;;;6.35;;
20411;SDS011;10365;52.578;8.138;2023-10-13T14:36:35;18.75;;;6.95;;
20411;SDS011;10365;52.578;8.138;2023-10-13T14:39:01;18.63;;;6.20;;
20411;SDS011;10365;52.578;8.138;2023-10-13T14:41:26;16.92;;;7.05;;
20411;SDS011;10365;52.578;8.138;2023-10-13T14:43:51;18.20;;;5.70;;
20411;SDS011;10365;52.578;8.138;2023-10-13T14:46:17;19.02;;;6.95;;
20411;SDS011;10365;52.578;8.138;2023-10-13T14:48:43;20.08;;;7.15;;
20411;SDS011;10365;52.578;8.138;2023-10-13T14:51:12;21.70;;;5.53;;
20411;SDS011;10365;52.578;8.138;2023-10-13T14:53:43;19.02;;;6.03;;
20411;SDS011;10365;52.578;8.138;2023-10-13T14:56:15;17.33;;;5.53;;
20411;SDS011;10365;52.578;8.138;2023-10-13T14:58:41;22.15;;;6.15;;
20411;SDS011;10365;52.578;8.138;2023-10-13T15:01:13;18.33;;;5.72;;
20411;SDS011;10365;52.578;8.138;2023-10-13T15:06:14;20.25;;;6.20;;
20411;SDS011;10365;52.578;8.138;2023-10-13T15:08:42;22.13;;;6.43;;
20411;SDS011;10365;52.578;8.138;2023-10-13T15:11:11;18.83;;;6.22;;
20411;SDS011;10365;52.578;8.138;2023-10-13T15:13:38;23.05;;;6.05;;
20411;SDS011;10365;52.578;8.138;2023-10-13T15:16:12;20.33;;;5.90;;
20411;SDS011;10365;52.578;8.138;2023-10-13T15:18:38;20.85;;;5.72;;
20411;SDS011;10365;52.578;8.138;2023-10-13T15:21:05;16.50;;;6.32;;
20411;SDS011;10365;52.578;8.138;2023-10-13T15:23:33;20.23;;;6.63;;
20411;SDS011;10365;52.578;8.138;2023-10-13T15:26:07;19.63;;;6.85;;
20411;SDS011;10365;52.578;8.138;2023-10-13T15:28:34;21.73;;;6.38;;